createdAt,value
2022-11-21T00:01:26.717Z,100.00
2022-11-21T00:03:53.843Z,100.00
2022-11-21T00:06:20.674Z,100.00
2022-11-21T00:08:47.781Z,100.00
2022-11-21T00:11:15.447Z,100.00
2022-11-21T00:13:43.193Z,100.00
2022-11-21T00:16:14.069Z,100.00
2022-11-21T00:18:42.110Z,100.00
2022-11-21T00:21:14.341Z,100.00
2022-11-21T00:23:41.697Z,100.00
2022-11-21T00:26:10.537Z,100.00
2022-11-21T00:28:37.573Z,100.00
2022-11-21T00:31:05.408Z,100.00
2022-11-21T00:33:34.712Z,100.00
2022-11-21T00:36:08.543Z,100.00
2022-11-21T00:38:35.857Z,100.00
2022-11-21T00:41:02.658Z,100.00
2022-11-21T00:43:29.425Z,100.00
2022-11-21T00:45:56.294Z,100.00
2022-11-21T00:48:23.062Z,100.00
2022-11-21T00:50:50.140Z,100.00
2022-11-21T00:53:16.950Z,100.00
2022-11-21T00:55:43.772Z,100.00
2022-11-21T00:58:10.564Z,100.00
2022-11-21T01:00:37.388Z,100.00
2022-11-21T01:03:04.188Z,100.00
2022-11-21T01:05:33.177Z,100.00
2022-11-21T01:07:59.943Z,100.00
2022-11-21T01:10:26.789Z,100.00
2022-11-21T01:12:53.570Z,100.00
2022-11-21T01:15:20.334Z,100.00
2022-11-21T01:17:47.126Z,100.00
2022-11-21T01:20:14.799Z,100.00
2022-11-21T01:22:41.529Z,100.00
2022-11-21T01:25:08.658Z,100.00
2022-11-21T01:27:35.655Z,100.00
2022-11-21T01:30:02.436Z,100.00
2022-11-21T01:32:29.212Z,100.00
2022-11-21T01:34:55.992Z,100.00
2022-11-21T01:37:22.758Z,100.00
2022-11-21T01:39:49.521Z,100.00
2022-11-21T01:42:16.272Z,100.00
2022-11-21T01:44:53.515Z,100.00
2022-11-21T01:47:22.490Z,100.00
2022-11-21T01:49:49.973Z,100.00
2022-11-21T01:52:28.647Z,100.00
2022-11-21T01:55:03.794Z,100.00
2022-11-21T01:57:41.465Z,100.00
2022-11-21T02:00:11.319Z,100.00
2022-11-21T02:02:44.346Z,100.00
2022-11-21T02:05:18.706Z,100.00
2022-11-21T02:07:48.626Z,100.00
2022-11-21T02:10:16.659Z,100.00
2022-11-21T02:13:00.096Z,100.00
2022-11-21T02:15:29.555Z,100.00
2022-11-21T02:17:56.521Z,100.00
2022-11-21T02:20:26.309Z,100.00
2022-11-21T02:23:07.936Z,100.00
2022-11-21T02:25:37.967Z,100.00
2022-11-21T02:28:12.140Z,100.00
2022-11-21T02:30:41.393Z,100.00
2022-11-21T02:33:08.804Z,100.00
2022-11-21T02:35:35.926Z,100.00
2022-11-21T02:38:18.233Z,100.00
2022-11-21T02:41:05.944Z,100.00
2022-11-21T02:43:44.772Z,100.00
2022-11-21T02:46:11.577Z,100.00
2022-11-21T02:48:39.192Z,100.00
2022-11-21T02:51:06.091Z,100.00
2022-11-21T02:53:32.939Z,100.00
2022-11-21T02:55:59.737Z,100.00
2022-11-21T02:58:27.035Z,100.00
2022-11-21T03:00:55.204Z,100.00
2022-11-21T03:03:22.552Z,100.00
2022-11-21T03:05:49.404Z,100.00
2022-11-21T03:08:16.217Z,100.00
2022-11-21T03:10:43.017Z,100.00
2022-11-21T03:13:09.772Z,100.00
2022-11-21T03:15:36.559Z,100.00
2022-11-21T03:18:04.455Z,100.00
2022-11-21T03:20:32.968Z,100.00
2022-11-21T03:22:59.744Z,100.00
2022-11-21T03:25:26.635Z,100.00
2022-11-21T03:27:54.534Z,100.00
2022-11-21T03:30:24.460Z,100.00
2022-11-21T03:32:51.357Z,100.00
2022-11-21T03:35:18.186Z,100.00
2022-11-21T03:37:45.038Z,100.00
2022-11-21T03:40:12.534Z,100.00
2022-11-21T03:42:39.448Z,100.00
2022-11-21T03:45:07.192Z,100.00
2022-11-21T03:47:34.147Z,100.00
2022-11-21T03:50:00.983Z,100.00
2022-11-21T03:52:27.833Z,100.00
2022-11-21T03:54:54.629Z,100.00
2022-11-21T03:57:21.431Z,100.00
2022-11-21T03:59:48.235Z,100.00
2022-11-21T04:02:15.068Z,100.00
2022-11-21T04:04:41.854Z,100.00
2022-11-21T04:07:08.733Z,100.00
2022-11-21T04:09:35.666Z,100.00
2022-11-21T04:12:07.312Z,100.00
2022-11-21T04:14:34.724Z,100.00
2022-11-21T04:17:01.639Z,100.00
2022-11-21T04:19:28.450Z,100.00
2022-11-21T04:21:55.208Z,100.00
2022-11-21T04:24:21.999Z,100.00
2022-11-21T04:26:48.793Z,100.00
2022-11-21T04:29:15.556Z,100.00
2022-11-21T04:31:42.328Z,100.00
2022-11-21T04:34:09.151Z,100.00
2022-11-21T04:36:36.099Z,100.00
2022-11-21T04:39:04.279Z,100.00
2022-11-21T04:41:31.145Z,100.00
2022-11-21T04:43:57.954Z,100.00
2022-11-21T04:46:24.799Z,100.00
2022-11-21T04:48:51.608Z,100.00
2022-11-21T04:51:18.503Z,100.00
2022-11-21T04:53:45.273Z,100.00
2022-11-21T04:56:16.227Z,100.00
2022-11-21T04:58:44.693Z,100.00
2022-11-21T05:01:12.238Z,100.00
2022-11-21T05:03:39.254Z,100.00
2022-11-21T05:06:06.097Z,100.00
2022-11-21T05:08:32.890Z,100.00
2022-11-21T05:11:17.870Z,100.00
2022-11-21T05:13:44.619Z,100.00
2022-11-21T05:16:11.459Z,100.00
2022-11-21T05:18:38.308Z,100.00
2022-11-21T05:21:05.174Z,100.00
2022-11-21T05:23:32.036Z,100.00
2022-11-21T05:25:58.832Z,100.00
2022-11-21T05:28:25.725Z,100.00
2022-11-21T05:30:52.528Z,100.00
2022-11-21T05:33:20.280Z,100.00
2022-11-21T05:35:47.178Z,100.00
2022-11-21T05:38:13.966Z,100.00
2022-11-21T05:40:40.777Z,100.00
2022-11-21T05:43:26.397Z,100.00
2022-11-21T05:45:53.449Z,100.00
2022-11-21T05:48:20.310Z,100.00
2022-11-21T05:50:50.189Z,100.00
2022-11-21T05:53:17.679Z,100.00
2022-11-21T05:55:45.369Z,100.00
2022-11-21T05:58:12.383Z,100.00
2022-11-21T06:00:39.329Z,100.00
2022-11-21T06:03:27.842Z,100.00
2022-11-21T06:06:13.347Z,100.00
2022-11-21T06:08:43.588Z,100.00
2022-11-21T06:11:15.946Z,100.00
2022-11-21T06:13:43.483Z,100.00
2022-11-21T06:16:13.885Z,100.00
2022-11-21T06:18:44.089Z,100.00
2022-11-21T06:21:16.965Z,100.00
2022-11-21T06:23:44.259Z,100.00
2022-11-21T06:26:18.684Z,100.00
2022-11-21T06:28:46.817Z,100.00
2022-11-21T06:31:18.364Z,100.00
2022-11-21T06:33:45.996Z,100.00
2022-11-21T06:36:19.112Z,100.00
2022-11-21T06:38:46.725Z,100.00
2022-11-21T06:41:15.594Z,100.00
2022-11-21T06:43:43.141Z,100.00
2022-11-21T06:46:10.619Z,100.00
2022-11-21T06:48:38.479Z,100.00
2022-11-21T06:51:22.203Z,100.00
2022-11-21T06:53:57.438Z,100.00
2022-11-21T06:56:30.335Z,100.00
2022-11-21T06:58:58.318Z,100.00
2022-11-21T07:01:25.979Z,100.00
2022-11-21T07:03:53.712Z,100.00
2022-11-21T07:06:20.797Z,100.00
2022-11-21T07:08:52.435Z,100.00
2022-11-21T07:11:26.895Z,100.00
2022-11-21T07:13:53.884Z,100.00
2022-11-21T07:16:20.636Z,100.00
2022-11-21T07:18:47.869Z,100.00
2022-11-21T07:21:15.018Z,100.00
2022-11-21T07:23:41.987Z,100.00
2022-11-21T07:26:10.774Z,100.00
2022-11-21T07:28:37.594Z,100.00
2022-11-21T07:31:09.962Z,100.00
2022-11-21T07:33:38.649Z,100.00
2022-11-21T07:36:05.881Z,100.00
2022-11-21T07:38:32.669Z,100.00
2022-11-21T07:40:59.547Z,100.00
2022-11-21T07:43:26.308Z,100.00
2022-11-21T07:45:53.075Z,100.00
2022-11-21T07:48:19.847Z,100.00
2022-11-21T07:50:46.595Z,100.00
2022-11-21T07:53:13.547Z,100.00
2022-11-21T07:55:41.028Z,100.00
2022-11-21T07:58:11.759Z,100.00
2022-11-21T08:00:42.638Z,100.00
2022-11-21T08:03:11.942Z,100.00
2022-11-21T08:05:41.810Z,100.00
2022-11-21T08:08:10.596Z,100.00
2022-11-21T08:10:43.725Z,100.00
2022-11-21T08:13:11.845Z,100.00
2022-11-21T08:15:39.275Z,100.00
2022-11-21T08:18:15.791Z,100.00
2022-11-21T08:20:42.846Z,100.00
2022-11-21T08:23:10.721Z,100.00
2022-11-21T08:25:38.994Z,100.00
2022-11-21T08:28:07.604Z,100.00
2022-11-21T08:30:35.801Z,100.00
2022-11-21T08:33:03.537Z,100.00
2022-11-21T08:35:30.726Z,100.00
2022-11-21T08:37:59.170Z,100.00
2022-11-21T08:40:28.312Z,100.00
2022-11-21T08:43:07.270Z,100.00
2022-11-21T08:45:36.391Z,100.00
2022-11-21T08:48:04.068Z,100.00
2022-11-21T08:50:31.964Z,100.00
2022-11-21T08:53:02.904Z,100.00
2022-11-21T08:55:30.858Z,100.00
2022-11-21T08:57:58.440Z,100.00
2022-11-21T09:00:25.613Z,100.00
2022-11-21T09:02:52.426Z,100.00
2022-11-21T09:05:19.294Z,100.00
2022-11-21T09:07:47.563Z,100.00
2022-11-21T09:10:15.028Z,100.00
2022-11-21T09:12:41.895Z,100.00
2022-11-21T09:15:29.836Z,100.00
2022-11-21T09:18:04.532Z,100.00
2022-11-21T09:20:40.958Z,100.00
2022-11-21T09:23:11.802Z,100.00
2022-11-21T09:25:38.777Z,100.00
2022-11-21T09:28:08.064Z,100.00
2022-11-21T09:30:35.642Z,100.00
2022-11-21T09:33:04.468Z,100.00
2022-11-21T09:35:31.884Z,100.00
2022-11-21T09:37:59.242Z,100.00
2022-11-21T09:40:26.543Z,100.00
2022-11-21T09:43:58.096Z,100.00
2022-11-21T09:46:31.864Z,100.00
2022-11-21T09:49:06.675Z,100.00
2022-11-21T09:51:37.654Z,100.00
2022-11-21T09:54:10.964Z,100.00
2022-11-21T09:56:41.462Z,100.00
2022-11-21T09:59:29.282Z,100.00
2022-11-21T10:01:56.723Z,100.00
2022-11-21T10:04:23.735Z,100.00
2022-11-21T10:07:07.341Z,100.00
2022-11-21T10:10:03.534Z,100.00
2022-11-21T10:13:06.713Z,100.00
2022-11-21T10:15:58.387Z,100.00
2022-11-21T10:19:21.861Z,100.00
2022-11-21T10:22:21.095Z,100.00
2022-11-21T10:24:57.848Z,100.00
2022-11-21T10:27:36.755Z,100.00
2022-11-21T10:30:13.711Z,100.00
2022-11-21T10:32:48.982Z,100.00
2022-11-21T10:35:48.644Z,100.00
2022-11-21T10:38:26.693Z,100.00
2022-11-21T10:41:40.535Z,100.00
2022-11-21T10:44:45.765Z,100.00
2022-11-21T10:47:27.624Z,100.00
2022-11-21T10:50:14.539Z,100.00
2022-11-21T10:53:37.432Z,100.00
2022-11-21T10:56:13.696Z,100.00
2022-11-21T10:58:45.589Z,100.00
2022-11-21T11:01:33.890Z,100.00
2022-11-21T11:06:59.908Z,100.00
2022-11-21T11:09:33.084Z,100.00
2022-11-21T11:12:18.824Z,100.00
2022-11-21T11:14:56.201Z,100.00
2022-11-21T11:17:31.961Z,100.00
2022-11-21T11:20:44.908Z,97.01
2022-11-21T11:23:25.748Z,98.08
2022-11-21T11:25:58.507Z,100.00
2022-11-21T11:28:27.254Z,99.71
2022-11-21T11:30:55.798Z,96.17
2022-11-21T11:33:41.054Z,94.71
2022-11-21T11:36:11.971Z,87.36
2022-11-21T11:38:41.215Z,87.64
2022-11-21T11:42:22.780Z,89.39
2022-11-21T11:45:17.625Z,83.40
2022-11-21T11:48:00.191Z,80.69
2022-11-21T11:50:50.462Z,81.75
2022-11-21T11:53:42.222Z,82.06
2022-11-21T11:56:22.668Z,83.07
2022-11-21T11:59:05.261Z,81.53
2022-11-21T12:01:55.803Z,83.53
2022-11-21T12:04:25.116Z,84.38
2022-11-21T12:08:19.902Z,83.54
2022-11-21T12:10:27.643Z,81.12
2022-11-21T12:13:14.224Z,81.07
2022-11-21T12:15:50.671Z,82.83
2022-11-21T12:18:20.455Z,81.73
2022-11-21T12:21:14.472Z,80.85
2022-11-21T12:23:58.572Z,81.38
2022-11-21T12:26:45.308Z,81.97
2022-11-21T12:29:36.102Z,83.33
2022-11-21T12:32:31.401Z,84.81
2022-11-21T12:35:44.302Z,84.34
2022-11-21T12:38:45.238Z,84.97
2022-11-21T12:41:48.312Z,85.64
2022-11-21T12:44:59.539Z,85.21
2022-11-21T12:48:01.244Z,86.78
2022-11-21T12:51:08.972Z,87.39
2022-11-21T12:54:30.243Z,87.09
2022-11-21T12:57:09.862Z,87.45
2022-11-21T13:00:17.171Z,87.26
2022-11-21T13:03:24.460Z,87.74
2022-11-21T13:05:53.543Z,88.52
2022-11-21T13:08:25.517Z,87.55
2022-11-21T13:11:57.374Z,85.73
2022-11-21T13:14:48.440Z,86.72
2022-11-21T13:17:36.953Z,83.44
2022-11-21T13:20:28.138Z,84.44
2022-11-21T13:23:01.042Z,85.38
2022-11-21T13:25:41.093Z,85.30
2022-11-21T13:28:13.941Z,85.26
2022-11-21T13:30:52.309Z,85.34
2022-11-21T13:33:38.957Z,86.04
2022-11-21T13:36:14.001Z,83.98
2022-11-21T13:38:52.814Z,86.33
2022-11-21T13:41:53.332Z,81.90
2022-11-21T13:44:32.334Z,84.07
2022-11-21T13:47:10.841Z,82.43
2022-11-21T13:49:43.391Z,84.43
2022-11-21T13:52:49.901Z,84.02
2022-11-21T13:55:59.555Z,84.27
2022-11-21T13:59:12.628Z,83.86
2022-11-21T14:01:57.328Z,84.78
2022-11-21T14:04:43.264Z,85.33
2022-11-21T14:07:31.528Z,85.47
2022-11-21T14:10:04.605Z,84.97
2022-11-21T14:12:44.301Z,85.86
2022-11-21T14:15:38.830Z,80.99
2022-11-21T14:18:06.455Z,76.95
2022-11-21T14:20:56.814Z,75.26
2022-11-21T14:23:26.826Z,73.77
2022-11-21T14:25:57.547Z,74.08
2022-11-21T14:28:34.159Z,72.92
2022-11-21T14:31:10.226Z,70.28
2022-11-21T14:33:41.379Z,72.29
2022-11-21T14:36:16.833Z,73.46
2022-11-21T14:39:02.107Z,73.06
2022-11-21T14:41:38.418Z,73.97
2022-11-21T14:44:15.372Z,73.20
2022-11-21T14:46:43.323Z,73.71
2022-11-21T14:49:15.856Z,75.12
2022-11-21T14:51:45.655Z,72.78
2022-11-21T14:54:18.896Z,73.57
2022-11-21T14:56:49.359Z,74.00
2022-11-21T14:59:29.781Z,74.96
2022-11-21T15:02:22.079Z,75.32
2022-11-21T15:04:52.218Z,76.81
2022-11-21T15:07:30.162Z,75.82
2022-11-21T15:12:48.246Z,78.34
2022-11-21T15:15:35.601Z,79.99
2022-11-21T15:18:27.546Z,81.12
2022-11-21T15:20:55.713Z,81.69
2022-11-21T15:23:42.963Z,81.98
2022-11-21T15:26:35.452Z,82.68
2022-11-21T15:29:02.227Z,82.80
2022-11-21T15:31:29.133Z,83.99
2022-11-21T15:34:33.756Z,84.96
2022-11-21T15:37:16.622Z,85.48
2022-11-21T15:39:50.009Z,84.85
2022-11-21T15:42:31.922Z,84.95
2022-11-21T15:45:15.339Z,86.59
2022-11-21T15:47:47.043Z,86.64
2022-11-21T15:50:15.110Z,86.50
2022-11-21T15:52:51.216Z,87.54
2022-11-21T15:55:26.222Z,86.48
2022-11-21T15:57:53.017Z,86.85
2022-11-21T16:00:19.897Z,88.45
2022-11-21T16:02:47.381Z,88.41
2022-11-21T16:05:15.741Z,88.96
2022-11-21T16:07:42.845Z,89.24
2022-11-21T16:10:16.576Z,88.92
2022-11-21T16:12:47.116Z,88.04
2022-11-21T16:15:14.235Z,89.04
2022-11-21T16:17:41.683Z,89.91
2022-11-21T16:20:09.095Z,90.12
2022-11-21T16:22:35.842Z,88.96
2022-11-21T16:25:02.710Z,89.87
2022-11-21T16:27:29.598Z,89.96
2022-11-21T16:29:56.377Z,90.72
2022-11-21T16:32:26.369Z,91.33
2022-11-21T16:34:54.557Z,90.93
2022-11-21T16:37:21.363Z,90.98
2022-11-21T16:39:51.882Z,90.83
2022-11-21T16:42:19.698Z,91.28
2022-11-21T16:44:46.511Z,90.95
2022-11-21T16:47:14.849Z,92.24
2022-11-21T16:49:48.247Z,92.57
2022-11-21T16:52:16.125Z,91.99
2022-11-21T16:54:42.990Z,92.45
2022-11-21T16:57:09.806Z,91.34
2022-11-21T16:59:37.107Z,90.03
2022-11-21T17:02:04.320Z,89.70
2022-11-21T17:04:31.966Z,89.11
2022-11-21T17:07:00.787Z,89.17
2022-11-21T17:09:27.732Z,89.04
2022-11-21T17:11:57.768Z,89.47
2022-11-21T17:14:24.528Z,89.67
2022-11-21T17:16:51.416Z,90.17
2022-11-21T17:19:18.307Z,89.95
2022-11-21T17:21:45.276Z,89.96
2022-11-21T17:24:15.156Z,90.55
2022-11-21T17:26:41.969Z,90.52
2022-11-21T17:29:09.719Z,91.01
2022-11-21T17:31:36.662Z,91.14
2022-11-21T17:34:03.584Z,91.25
2022-11-21T17:36:34.186Z,91.42
2022-11-21T17:39:01.076Z,91.59
2022-11-21T17:41:28.073Z,91.70
2022-11-21T17:43:57.008Z,91.90
2022-11-21T17:46:28.330Z,91.10
2022-11-21T17:48:58.274Z,92.16
2022-11-21T17:51:29.442Z,91.65
2022-11-21T17:53:56.487Z,91.92
2022-11-21T17:56:28.510Z,92.74
2022-11-21T17:58:55.640Z,92.54
2022-11-21T18:01:22.902Z,91.39
2022-11-21T18:03:57.689Z,90.41
2022-11-21T18:06:32.423Z,91.83
2022-11-21T18:08:59.444Z,92.90
2022-11-21T18:11:38.900Z,94.10
2022-11-21T18:14:08.180Z,94.04
2022-11-21T18:16:35.588Z,93.54
2022-11-21T18:19:02.452Z,93.97
2022-11-21T18:21:32.366Z,94.36
2022-11-21T18:24:02.197Z,93.46
2022-11-21T18:26:32.696Z,94.14
2022-11-21T18:29:28.490Z,94.47
2022-11-21T18:31:49.209Z,94.86
2022-11-21T18:34:16.035Z,95.41
2022-11-21T18:36:42.782Z,94.83
2022-11-21T18:39:14.563Z,96.09
2022-11-21T18:41:43.585Z,96.92
2022-11-21T18:44:10.771Z,96.49
2022-11-21T18:46:41.022Z,96.63
2022-11-21T18:49:08.575Z,96.45
2022-11-21T18:51:36.863Z,96.28
2022-11-21T18:54:07.777Z,96.22
2022-11-21T18:56:36.826Z,96.51
2022-11-21T18:59:05.907Z,95.29
2022-11-21T19:01:34.750Z,95.55
2022-11-21T19:04:01.787Z,95.48
2022-11-21T19:06:29.210Z,96.40
2022-11-21T19:08:58.266Z,95.96
2022-11-21T19:11:28.510Z,95.93
2022-11-21T19:13:57.262Z,95.59
2022-11-21T19:16:27.404Z,95.70
2022-11-21T19:19:26.333Z,95.27
2022-11-21T19:21:42.405Z,95.53
2022-11-21T19:24:14.158Z,95.74
2022-11-21T19:26:41.982Z,95.99
2022-11-21T19:29:09.750Z,95.83
2022-11-21T19:31:42.611Z,95.68
2022-11-21T19:34:12.176Z,96.47
2022-11-21T19:36:39.496Z,96.38
2022-11-21T19:39:06.699Z,96.91
2022-11-21T19:41:33.529Z,96.58
2022-11-21T19:44:01.770Z,97.87
2022-11-21T19:46:35.232Z,98.13
2022-11-21T19:49:02.593Z,97.87
2022-11-21T19:51:31.822Z,98.49
2022-11-21T19:53:58.689Z,97.50
2022-11-21T19:56:26.466Z,98.27
2022-11-21T19:58:55.926Z,99.97
2022-11-21T20:01:26.718Z,100.00
2022-11-21T20:03:57.346Z,100.00
2022-11-21T20:06:32.704Z,100.00
2022-11-21T20:09:09.232Z,100.00
2022-11-21T20:11:36.953Z,100.00
2022-11-21T20:14:04.199Z,100.00
2022-11-21T20:16:37.350Z,100.00
2022-11-21T20:19:07.787Z,100.00
2022-11-21T20:21:35.380Z,100.00
2022-11-21T20:24:02.628Z,100.00
2022-11-21T20:26:29.845Z,100.00
2022-11-21T20:28:57.073Z,100.00
2022-11-21T20:31:30.467Z,100.00
2022-11-21T20:34:00.878Z,100.00
2022-11-21T20:36:30.705Z,100.00
2022-11-21T20:39:04.183Z,100.00
2022-11-21T20:41:34.149Z,100.00
2022-11-21T20:46:54.947Z,100.00
2022-11-21T20:49:21.744Z,100.00
2022-11-21T20:54:36.424Z,100.00
2022-11-21T20:57:03.291Z,100.00
2022-11-21T20:59:30.247Z,100.00
2022-11-21T21:01:57.387Z,100.00
2022-11-21T21:04:24.246Z,100.00
2022-11-21T21:06:51.026Z,100.00
2022-11-21T21:09:17.776Z,100.00
2022-11-21T21:11:52.153Z,100.00
2022-11-21T21:14:21.652Z,100.00
2022-11-21T21:16:49.127Z,100.00
2022-11-21T21:19:16.135Z,100.00
2022-11-21T21:21:43.103Z,100.00
2022-11-21T21:24:11.513Z,100.00
2022-11-21T21:26:43.373Z,100.00
2022-11-21T21:29:13.056Z,100.00
2022-11-21T21:31:43.894Z,100.00
2022-11-21T21:34:13.790Z,100.00
2022-11-21T21:36:40.553Z,100.00
2022-11-21T21:39:07.472Z,100.00
2022-11-21T21:41:34.464Z,100.00
2022-11-21T21:44:01.283Z,100.00
2022-11-21T21:46:28.384Z,100.00
2022-11-21T21:48:57.433Z,100.00
2022-11-21T21:51:27.309Z,100.00
2022-11-21T21:53:56.424Z,100.00
2022-11-21T21:56:25.605Z,100.00
2022-11-21T21:58:52.632Z,100.00
2022-11-21T22:01:25.821Z,100.00
2022-11-21T22:03:55.721Z,100.00
2022-11-21T22:06:23.073Z,100.00
2022-11-21T22:08:50.255Z,100.00
2022-11-21T22:11:21.900Z,100.00
2022-11-21T22:13:56.628Z,100.00
2022-11-21T22:16:23.392Z,100.00
2022-11-21T22:18:50.467Z,100.00
2022-11-21T22:21:23.680Z,100.00
2022-11-21T22:24:17.830Z,100.00
2022-11-21T22:26:38.284Z,100.00
2022-11-21T22:29:05.198Z,100.00
2022-11-21T22:31:32.872Z,100.00
2022-11-21T22:34:00.342Z,100.00
2022-11-21T22:36:27.171Z,100.00
2022-11-21T22:38:54.844Z,100.00
2022-11-21T22:41:26.964Z,100.00
2022-11-21T22:43:57.172Z,100.00
2022-11-21T22:46:26.952Z,100.00
2022-11-21T22:48:54.036Z,100.00
2022-11-21T22:51:24.304Z,100.00
2022-11-21T22:53:51.809Z,100.00
2022-11-21T22:56:22.016Z,100.00
2022-11-21T22:58:48.975Z,100.00
2022-11-21T23:01:19.334Z,100.00
2022-11-21T23:03:47.316Z,100.00
2022-11-21T23:06:20.474Z,100.00
2022-11-21T23:08:48.433Z,100.00
2022-11-21T23:11:22.721Z,100.00
2022-11-21T23:13:50.384Z,100.00
2022-11-21T23:16:17.879Z,100.00
2022-11-21T23:18:45.266Z,100.00
2022-11-21T23:21:13.580Z,100.00
2022-11-21T23:23:40.706Z,100.00
2022-11-21T23:26:07.927Z,100.00
2022-11-21T23:28:34.828Z,100.00
2022-11-21T23:31:01.832Z,100.00
2022-11-21T23:33:28.693Z,100.00
2022-11-21T23:35:55.629Z,100.00
2022-11-21T23:38:22.508Z,100.00
2022-11-21T23:40:49.817Z,100.00
2022-11-21T23:43:17.476Z,100.00
2022-11-21T23:45:45.347Z,100.00
2022-11-21T23:48:12.211Z,100.00
2022-11-21T23:50:39.083Z,100.00
2022-11-21T23:53:05.934Z,100.00
2022-11-21T23:55:32.816Z,100.00
2022-11-21T23:57:59.667Z,100.00
